createdAt,value
2023-02-06T00:00:50.410Z,99.99
2023-02-06T00:01:50.353Z,99.99
2023-02-06T00:02:50.323Z,99.99
2023-02-06T00:03:50.312Z,99.99
2023-02-06T00:04:50.300Z,99.99
2023-02-06T00:05:50.320Z,99.99
2023-02-06T00:06:50.258Z,99.99
2023-02-06T00:07:50.241Z,99.99
2023-02-06T00:08:50.222Z,99.99
2023-02-06T00:09:50.209Z,99.99
2023-02-06T00:10:50.188Z,99.99
2023-02-06T00:11:50.180Z,99.99
2023-02-06T00:12:50.155Z,99.99
2023-02-06T00:13:50.147Z,99.99
2023-02-06T00:14:50.120Z,99.99
2023-02-06T00:15:50.293Z,99.99
2023-02-06T00:16:50.109Z,99.99
2023-02-06T00:17:50.074Z,99.99
2023-02-06T00:18:50.095Z,99.99
2023-02-06T00:19:50.041Z,99.99
2023-02-06T00:20:50.021Z,99.99
2023-02-06T00:21:50.008Z,99.99
2023-02-06T00:22:49.990Z,99.99
2023-02-06T00:23:49.972Z,99.99
2023-02-06T00:24:49.952Z,99.99
2023-02-06T00:25:49.938Z,99.99
2023-02-06T00:26:49.929Z,99.99
2023-02-06T00:27:49.927Z,99.99
2023-02-06T00:28:49.888Z,99.99
2023-02-06T00:29:49.874Z,99.99
2023-02-06T00:30:49.996Z,99.99
2023-02-06T00:31:49.864Z,99.99
2023-02-06T00:32:49.860Z,99.99
2023-02-06T00:33:49.810Z,99.99
2023-02-06T00:34:49.787Z,99.99
2023-02-06T00:35:49.775Z,99.99
2023-02-06T00:36:49.755Z,99.99
2023-02-06T00:37:49.744Z,99.99
2023-02-06T00:38:49.725Z,99.99
2023-02-06T00:39:49.707Z,99.99
2023-02-06T00:40:49.690Z,99.99
2023-02-06T00:41:49.676Z,99.99
2023-02-06T00:42:49.655Z,99.99
2023-02-06T00:43:49.641Z,99.99
2023-02-06T00:44:49.622Z,99.99
2023-02-06T00:45:49.611Z,99.99
2023-02-06T00:46:49.589Z,99.99
2023-02-06T00:47:49.577Z,99.99
2023-02-06T00:48:49.574Z,99.99
2023-02-06T00:50:49.531Z,99.99
2023-02-06T00:51:49.507Z,99.99
2023-02-06T00:52:49.493Z,99.99
2023-02-06T00:53:51.139Z,99.99
2023-02-06T00:54:49.467Z,99.99
2023-02-06T00:55:49.443Z,99.99
2023-02-06T00:56:49.431Z,99.99
2023-02-06T00:57:49.408Z,99.99
2023-02-06T00:58:49.392Z,99.99
2023-02-06T00:59:49.374Z,99.99
2023-02-06T01:00:49.383Z,99.99
2023-02-06T01:01:49.359Z,99.99
2023-02-06T01:02:49.403Z,99.99
2023-02-06T01:03:49.304Z,99.99
2023-02-06T01:04:49.313Z,99.99
2023-02-06T01:05:49.276Z,99.99
2023-02-06T01:06:49.260Z,99.99
2023-02-06T01:07:49.237Z,99.99
2023-02-06T01:08:49.225Z,99.99
2023-02-06T01:09:49.205Z,99.99
2023-02-06T01:10:49.186Z,99.99
2023-02-06T01:11:49.166Z,99.99
2023-02-06T01:12:49.154Z,99.99
2023-02-06T01:13:49.137Z,99.99
2023-02-06T01:14:49.118Z,99.99
2023-02-06T01:15:51.123Z,99.99
2023-02-06T01:16:49.090Z,99.99
2023-02-06T01:17:49.065Z,99.99
2023-02-06T01:18:49.052Z,99.99
2023-02-06T01:19:49.033Z,99.99
2023-02-06T01:20:49.047Z,99.99
2023-02-06T01:21:49.003Z,99.99
2023-02-06T01:22:48.987Z,99.99
2023-02-06T01:23:49.016Z,99.99
2023-02-06T01:24:48.948Z,99.99
2023-02-06T01:25:48.929Z,99.99
2023-02-06T01:26:48.914Z,99.99
2023-02-06T01:27:48.937Z,99.99
2023-02-06T01:28:48.878Z,99.99
2023-02-06T01:29:48.868Z,99.99
2023-02-06T01:30:48.860Z,99.99
2023-02-06T01:31:48.862Z,99.99
2023-02-06T01:32:48.825Z,99.99
2023-02-06T01:33:48.797Z,99.99
2023-02-06T01:34:48.776Z,99.99
2023-02-06T01:35:48.762Z,99.99
2023-02-06T01:36:48.763Z,99.99
2023-02-06T01:37:48.729Z,99.99
2023-02-06T01:38:48.706Z,99.99
2023-02-06T01:39:48.700Z,99.99
2023-02-06T01:40:48.674Z,99.99
2023-02-06T01:41:48.658Z,99.99
2023-02-06T01:42:48.640Z,99.99
2023-02-06T01:43:48.625Z,99.99
2023-02-06T01:44:48.605Z,99.99
2023-02-06T01:45:48.592Z,99.99
2023-02-06T01:46:48.592Z,99.99
2023-02-06T01:47:48.570Z,99.99
2023-02-06T01:48:48.538Z,99.99
2023-02-06T01:49:48.522Z,99.99
2023-02-06T01:51:48.484Z,99.99
2023-02-06T01:52:48.621Z,99.99
2023-02-06T01:53:48.453Z,99.99
2023-02-06T01:54:48.438Z,99.99
2023-02-06T01:55:48.416Z,99.99
2023-02-06T01:56:48.404Z,99.99
2023-02-06T01:57:48.386Z,99.99
2023-02-06T01:58:48.368Z,99.99
2023-02-06T01:59:48.349Z,99.99
2023-02-06T02:00:48.543Z,99.99
2023-02-06T02:01:48.410Z,99.99
2023-02-06T02:02:48.337Z,99.99
2023-02-06T02:03:48.278Z,99.99
2023-02-06T02:04:48.266Z,99.99
2023-02-06T02:05:48.274Z,99.99
2023-02-06T02:06:48.231Z,99.99
2023-02-06T02:07:48.212Z,99.99
2023-02-06T02:08:48.219Z,99.99
2023-02-06T02:09:48.208Z,99.99
2023-02-06T02:10:48.171Z,99.99
2023-02-06T02:11:48.143Z,99.99
2023-02-06T02:12:48.137Z,99.99
2023-02-06T02:13:48.112Z,99.99
2023-02-06T02:14:48.099Z,99.99
2023-02-06T02:15:48.078Z,99.99
2023-02-06T02:16:48.077Z,99.99
2023-02-06T02:17:48.048Z,99.99
2023-02-06T02:18:48.031Z,99.99
2023-02-06T02:19:48.020Z,99.99
2023-02-06T02:20:47.999Z,99.99
2023-02-06T02:21:47.979Z,99.99
2023-02-06T02:22:47.966Z,99.99
2023-02-06T02:23:47.949Z,99.99
2023-02-06T02:24:47.992Z,99.99
2023-02-06T02:25:47.910Z,99.99
2023-02-06T02:26:47.898Z,99.99
2023-02-06T02:27:47.891Z,99.99
2023-02-06T02:28:47.878Z,99.99
2023-02-06T02:29:47.844Z,99.99
2023-02-06T02:30:47.874Z,99.99
2023-02-06T02:31:47.847Z,99.99
2023-02-06T02:32:47.798Z,99.99
2023-02-06T02:33:47.776Z,99.99
2023-02-06T02:34:47.767Z,99.99
2023-02-06T02:35:47.742Z,99.99
2023-02-06T02:36:47.728Z,99.99
2023-02-06T02:37:47.708Z,99.99
2023-02-06T02:38:47.694Z,99.99
2023-02-06T02:39:47.674Z,99.99
2023-02-06T02:40:47.678Z,99.99
2023-02-06T02:41:47.646Z,99.99
2023-02-06T02:42:47.624Z,99.99
2023-02-06T02:43:47.605Z,99.99
2023-02-06T02:44:47.591Z,99.99
2023-02-06T02:45:47.587Z,99.99
2023-02-06T02:46:47.565Z,99.99
2023-02-06T02:47:47.543Z,99.99
2023-02-06T02:48:47.521Z,99.99
2023-02-06T02:49:47.500Z,99.99
2023-02-06T02:50:47.497Z,99.99
2023-02-06T02:51:47.464Z,99.99
2023-02-06T02:52:47.471Z,99.99
2023-02-06T02:53:47.432Z,99.99
2023-02-06T02:54:47.414Z,99.99
2023-02-06T02:55:47.410Z,99.99
2023-02-06T02:56:47.401Z,99.99
2023-02-06T02:57:47.360Z,99.99
2023-02-06T02:58:47.345Z,99.99
2023-02-06T02:59:47.324Z,99.99
2023-02-06T03:00:47.346Z,99.99
2023-02-06T03:01:47.290Z,99.99
2023-02-06T03:03:47.267Z,99.99
2023-02-06T03:04:47.273Z,99.99
2023-02-06T03:05:47.224Z,99.99
2023-02-06T03:06:47.202Z,99.99
2023-02-06T03:07:47.198Z,99.99
2023-02-06T03:08:47.172Z,99.99
2023-02-06T03:09:47.154Z,99.99
2023-02-06T03:10:47.134Z,99.99
2023-02-06T03:11:47.118Z,99.99
2023-02-06T03:12:47.160Z,99.99
2023-02-06T03:13:47.085Z,99.99
2023-02-06T03:14:47.067Z,99.99
2023-02-06T03:15:47.049Z,99.99
2023-02-06T03:16:47.097Z,99.99
2023-02-06T03:17:47.014Z,99.99
2023-02-06T03:18:46.994Z,99.99
2023-02-06T03:19:46.982Z,99.99
2023-02-06T03:20:46.961Z,99.99
2023-02-06T03:21:46.947Z,99.99
2023-02-06T03:22:46.924Z,99.99
2023-02-06T03:24:46.893Z,99.99
2023-02-06T03:25:46.876Z,99.99
2023-02-06T03:26:46.858Z,99.99
2023-02-06T03:27:46.866Z,99.99
2023-02-06T03:28:46.846Z,99.99
2023-02-06T03:29:46.804Z,99.99
2023-02-06T03:30:46.802Z,99.99
2023-02-06T03:31:46.812Z,99.99
2023-02-06T03:32:46.761Z,99.99
2023-02-06T03:33:46.743Z,99.99
2023-02-06T03:34:46.725Z,99.99
2023-02-06T03:35:46.699Z,99.99
2023-02-06T03:36:46.683Z,99.99
2023-02-06T03:37:46.669Z,99.99
2023-02-06T03:38:46.648Z,99.99
2023-02-06T03:39:46.627Z,99.99
2023-02-06T03:40:46.613Z,99.99
2023-02-06T03:41:46.593Z,99.99
2023-02-06T03:42:46.581Z,99.99
2023-02-06T03:43:46.556Z,99.99
2023-02-06T03:44:46.563Z,99.99
2023-02-06T03:45:46.576Z,99.99
2023-02-06T03:46:46.506Z,99.99
2023-02-06T03:47:46.486Z,99.99
2023-02-06T03:48:46.477Z,99.99
2023-02-06T03:49:46.453Z,99.99
2023-02-06T03:50:46.436Z,99.99
2023-02-06T03:51:46.427Z,99.99
2023-02-06T03:52:46.406Z,99.99
2023-02-06T03:53:46.386Z,99.99
2023-02-06T03:54:46.366Z,99.99
2023-02-06T03:55:46.348Z,99.99
2023-02-06T03:56:46.331Z,99.99
2023-02-06T03:57:46.314Z,99.99
2023-02-06T03:58:46.301Z,99.99
2023-02-06T03:59:46.280Z,99.99
2023-02-06T04:00:46.308Z,99.99
2023-02-06T04:01:46.242Z,99.99
2023-02-06T04:02:46.237Z,99.99
2023-02-06T04:03:46.208Z,99.99
2023-02-06T04:04:46.195Z,99.99
2023-02-06T04:05:46.176Z,99.99
2023-02-06T04:06:46.163Z,99.99
2023-02-06T04:07:46.138Z,99.99
2023-02-06T04:08:46.125Z,99.99
2023-02-06T04:09:46.102Z,99.99
2023-02-06T04:10:46.091Z,99.99
2023-02-06T04:11:46.067Z,99.99
2023-02-06T04:12:46.056Z,99.99
2023-02-06T04:13:46.033Z,99.99
2023-02-06T04:14:46.017Z,99.99
2023-02-06T04:15:45.998Z,99.99
2023-02-06T04:16:46.070Z,99.99
2023-02-06T04:17:58.839Z,99.99
2023-02-06T04:18:45.945Z,99.99
2023-02-06T04:19:45.924Z,99.99
2023-02-06T04:20:45.911Z,99.99
2023-02-06T04:21:45.897Z,99.99
2023-02-06T04:22:45.885Z,99.99
2023-02-06T04:23:45.856Z,99.99
2023-02-06T04:24:45.846Z,99.99
2023-02-06T04:25:45.821Z,99.99
2023-02-06T04:26:45.804Z,99.99
2023-02-06T04:27:45.842Z,99.99
2023-02-06T04:28:45.776Z,99.99
2023-02-06T04:29:45.746Z,99.99
2023-02-06T04:30:45.882Z,99.99
2023-02-06T04:31:45.712Z,99.99
2023-02-06T04:32:45.726Z,99.99
2023-02-06T04:33:45.676Z,99.99
2023-02-06T04:34:45.661Z,99.99
2023-02-06T04:35:45.640Z,99.99
2023-02-06T04:36:45.625Z,99.99
2023-02-06T04:37:45.623Z,99.99
2023-02-06T04:38:45.591Z,99.99
2023-02-06T04:39:45.573Z,99.99
2023-02-06T04:40:45.559Z,99.99
2023-02-06T04:41:45.539Z,99.99
2023-02-06T04:42:45.537Z,99.99
2023-02-06T04:43:45.504Z,99.99
2023-02-06T04:44:45.481Z,99.99
2023-02-06T04:45:45.463Z,99.99
2023-02-06T04:46:45.447Z,99.99
2023-02-06T04:47:45.426Z,99.99
2023-02-06T04:48:45.468Z,99.99
2023-02-06T04:49:45.391Z,99.99
2023-02-06T04:50:45.376Z,99.99
2023-02-06T04:51:45.364Z,99.99
2023-02-06T04:52:45.346Z,99.99
2023-02-06T04:53:45.324Z,99.99
2023-02-06T04:54:45.312Z,99.99
2023-02-06T04:55:45.284Z,99.99
2023-02-06T04:56:45.271Z,99.99
2023-02-06T04:57:45.252Z,99.99
2023-02-06T04:58:45.236Z,99.99
2023-02-06T04:59:45.216Z,99.99
2023-02-06T05:00:45.198Z,99.99
2023-02-06T05:01:45.230Z,99.99
2023-02-06T05:02:45.202Z,99.99
2023-02-06T05:03:45.147Z,99.99
2023-02-06T05:04:45.150Z,99.99
2023-02-06T05:05:45.106Z,99.99
2023-02-06T05:06:45.097Z,99.99
2023-02-06T05:07:45.072Z,99.99
2023-02-06T05:08:45.052Z,99.99
2023-02-06T05:09:45.036Z,99.99
2023-02-06T05:10:45.018Z,99.99
2023-02-06T05:11:44.996Z,99.99
2023-02-06T05:12:44.980Z,99.99
2023-02-06T05:13:44.958Z,99.99
2023-02-06T05:14:44.947Z,99.99
2023-02-06T05:15:44.940Z,99.99
2023-02-06T05:16:44.906Z,99.99
2023-02-06T05:17:44.887Z,99.99
2023-02-06T05:18:44.870Z,99.99
2023-02-06T05:19:44.852Z,99.99
2023-02-06T05:20:44.862Z,99.99
2023-02-06T05:21:44.814Z,99.99
2023-02-06T05:22:44.798Z,99.99
2023-02-06T05:23:44.788Z,99.99
2023-02-06T05:24:44.762Z,99.99
2023-02-06T05:25:44.748Z,99.99
2023-02-06T05:26:44.726Z,99.99
2023-02-06T05:27:44.737Z,99.99
2023-02-06T05:28:44.691Z,99.99
2023-02-06T05:29:44.671Z,99.99
2023-02-06T05:30:44.657Z,99.99
2023-02-06T05:31:44.663Z,99.99
2023-02-06T05:32:44.623Z,99.99
2023-02-06T05:33:44.599Z,99.99
2023-02-06T05:34:44.584Z,99.99
2023-02-06T05:35:44.563Z,99.99
2023-02-06T05:36:44.675Z,99.99
2023-02-06T05:37:44.529Z,99.99
2023-02-06T05:38:44.514Z,99.99
2023-02-06T05:39:44.494Z,99.99
2023-02-06T05:40:44.479Z,99.99
2023-02-06T05:41:44.460Z,99.99
2023-02-06T05:42:44.444Z,99.99
2023-02-06T05:43:44.428Z,99.99
2023-02-06T05:44:44.412Z,99.99
2023-02-06T05:45:44.389Z,99.99
2023-02-06T05:46:44.373Z,99.99
2023-02-06T05:47:44.363Z,99.99
2023-02-06T05:48:44.340Z,99.99
2023-02-06T05:49:44.321Z,99.99
2023-02-06T05:50:44.304Z,99.99
2023-02-06T05:51:44.285Z,99.99
2023-02-06T05:52:44.286Z,99.99
2023-02-06T05:53:44.252Z,99.99
2023-02-06T05:54:44.232Z,99.99
2023-02-06T05:55:44.214Z,99.99
2023-02-06T05:56:44.194Z,99.99
2023-02-06T05:57:44.181Z,99.99
2023-02-06T05:58:44.161Z,99.99
2023-02-06T05:59:44.144Z,99.99
2023-02-06T06:00:44.148Z,99.99
2023-02-06T06:01:44.116Z,99.99
2023-02-06T06:02:44.089Z,99.99
2023-02-06T06:03:44.153Z,99.99
2023-02-06T06:04:44.156Z,99.99
2023-02-06T06:05:44.041Z,99.99
2023-02-06T06:06:44.016Z,99.99
2023-02-06T06:07:44.003Z,99.99
2023-02-06T06:08:44.005Z,99.99
2023-02-06T06:09:43.973Z,99.99
2023-02-06T06:10:43.947Z,99.99
2023-02-06T06:11:43.932Z,99.99
2023-02-06T06:12:43.909Z,99.99
2023-02-06T06:13:43.897Z,99.99
2023-02-06T06:14:43.875Z,99.99
2023-02-06T06:15:43.954Z,99.99
2023-02-06T06:16:43.850Z,99.99
2023-02-06T06:17:43.833Z,99.99
2023-02-06T06:18:43.805Z,99.99
2023-02-06T06:19:43.793Z,99.99
2023-02-06T06:20:43.767Z,99.99
2023-02-06T06:21:43.752Z,99.99
2023-02-06T06:22:43.730Z,99.99
2023-02-06T06:23:43.715Z,99.99
2023-02-06T06:24:43.789Z,99.99
2023-02-06T06:25:43.682Z,99.99
2023-02-06T06:26:43.658Z,99.99
2023-02-06T06:27:43.711Z,99.99
2023-02-06T06:28:43.631Z,99.99
2023-02-06T06:29:43.611Z,99.99
2023-02-06T06:30:43.639Z,99.99
2023-02-06T06:31:43.597Z,99.99
2023-02-06T06:32:43.550Z,99.99
2023-02-06T06:33:43.536Z,99.99
2023-02-06T06:34:43.514Z,99.99
2023-02-06T06:35:43.500Z,99.99
2023-02-06T06:36:43.480Z,99.99
2023-02-06T06:37:43.514Z,99.99
2023-02-06T06:38:43.448Z,99.99
2023-02-06T06:39:43.430Z,99.99
2023-02-06T06:40:43.446Z,99.99
2023-02-06T06:41:43.393Z,99.99
2023-02-06T06:42:43.371Z,99.99
2023-02-06T06:43:43.363Z,99.99
2023-02-06T06:44:43.336Z,99.99
2023-02-06T06:45:43.370Z,99.99
2023-02-06T06:46:43.300Z,99.99
2023-02-06T06:47:43.285Z,99.99
2023-02-06T06:48:43.267Z,99.99
2023-02-06T06:49:43.252Z,99.99
2023-02-06T06:50:43.233Z,99.99
2023-02-06T06:51:43.214Z,99.99
2023-02-06T06:52:43.198Z,99.99
2023-02-06T06:53:43.180Z,99.99
2023-02-06T06:54:43.158Z,99.99
2023-02-06T06:55:43.144Z,99.99
2023-02-06T06:56:43.149Z,99.99
2023-02-06T06:57:43.113Z,99.99
2023-02-06T06:58:43.088Z,99.99
2023-02-06T06:59:43.073Z,99.99
2023-02-06T07:00:43.103Z,99.99
2023-02-06T07:01:43.041Z,99.99
2023-02-06T07:02:43.097Z,99.99
2023-02-06T07:03:43.003Z,99.99
2023-02-06T07:04:42.981Z,99.99
2023-02-06T07:05:42.967Z,99.99
2023-02-06T07:06:42.945Z,99.99
2023-02-06T07:07:42.932Z,99.99
2023-02-06T07:08:42.910Z,99.99
2023-02-06T07:09:42.899Z,99.99
2023-02-06T07:10:42.874Z,99.99
2023-02-06T07:11:43.072Z,99.99
2023-02-06T07:12:42.868Z,99.99
2023-02-06T07:13:42.837Z,99.99
2023-02-06T07:14:42.803Z,99.99
2023-02-06T07:15:42.797Z,99.99
2023-02-06T07:16:42.839Z,99.99
2023-02-06T07:17:42.784Z,99.99
2023-02-06T07:18:42.734Z,99.99
2023-02-06T07:19:42.720Z,99.99
2023-02-06T07:20:42.700Z,99.99
2023-02-06T07:21:42.691Z,99.99
2023-02-06T07:22:42.665Z,99.99
2023-02-06T07:23:42.667Z,99.99
2023-02-06T07:24:42.693Z,99.99
2023-02-06T07:25:42.618Z,99.99
2023-02-06T07:26:42.596Z,99.99
2023-02-06T07:27:42.581Z,99.99
2023-02-06T07:28:42.601Z,99.99
2023-02-06T07:29:42.751Z,99.99
2023-02-06T07:30:42.559Z,99.99
2023-02-06T07:31:42.542Z,99.99
2023-02-06T07:32:42.489Z,99.99
2023-02-06T07:33:42.478Z,99.99
2023-02-06T07:34:42.455Z,99.99
2023-02-06T07:35:42.440Z,99.99
2023-02-06T07:36:42.421Z,99.99
2023-02-06T07:37:42.411Z,99.99
2023-02-06T07:38:42.388Z,99.99
2023-02-06T07:39:42.370Z,99.99
2023-02-06T07:40:45.302Z,99.99
2023-02-06T07:41:42.335Z,99.99
2023-02-06T07:42:42.320Z,99.99
2023-02-06T07:43:42.301Z,99.99
2023-02-06T07:44:42.351Z,99.99
2023-02-06T07:45:42.342Z,99.99
2023-02-06T07:46:42.247Z,99.99
2023-02-06T07:47:42.231Z,99.99
2023-02-06T07:48:42.210Z,99.99
2023-02-06T07:49:42.244Z,99.99
2023-02-06T07:50:42.179Z,99.99
2023-02-06T07:51:42.161Z,99.99
2023-02-06T07:52:42.141Z,99.99
2023-02-06T07:53:42.127Z,99.99
2023-02-06T07:54:42.105Z,99.99
2023-02-06T07:55:42.091Z,99.99
2023-02-06T07:56:42.071Z,99.99
2023-02-06T07:57:42.058Z,99.99
2023-02-06T07:58:42.039Z,99.99
2023-02-06T07:59:42.023Z,99.99
2023-02-06T08:00:42.026Z,99.99
2023-02-06T08:01:41.987Z,99.99
2023-02-06T08:02:41.969Z,99.99
2023-02-06T08:03:41.952Z,99.99
2023-02-06T08:04:42.054Z,99.99
2023-02-06T08:05:41.924Z,99.99
2023-02-06T08:06:41.901Z,99.99
2023-02-06T08:07:41.882Z,99.99
2023-02-06T08:08:41.869Z,99.99
2023-02-06T08:09:41.849Z,99.99
2023-02-06T08:10:41.828Z,99.99
2023-02-06T08:11:41.812Z,99.99
2023-02-06T08:12:41.791Z,99.99
2023-02-06T08:13:41.778Z,99.99
2023-02-06T08:14:41.755Z,99.99
2023-02-06T08:15:41.743Z,99.99
2023-02-06T08:16:41.777Z,99.99
2023-02-06T08:17:41.709Z,99.99
2023-02-06T08:18:41.686Z,99.99
2023-02-06T08:19:41.673Z,99.99
2023-02-06T08:20:41.651Z,99.99
2023-02-06T08:21:41.638Z,99.99
2023-02-06T08:22:41.616Z,99.99
2023-02-06T08:23:41.610Z,99.99
2023-02-06T08:24:41.581Z,99.99
2023-02-06T08:25:41.569Z,99.99
2023-02-06T08:26:41.546Z,99.99
2023-02-06T08:27:41.537Z,99.99
2023-02-06T08:28:42.454Z,99.99
2023-02-06T08:29:41.498Z,99.99
2023-02-06T08:30:41.693Z,99.99
2023-02-06T08:31:41.670Z,99.99
2023-02-06T08:32:41.472Z,99.99
2023-02-06T08:33:41.434Z,99.99
2023-02-06T08:34:41.413Z,99.99
2023-02-06T08:35:41.424Z,99.99
2023-02-06T08:36:43.386Z,99.99
2023-02-06T08:37:41.358Z,99.99
2023-02-06T08:38:41.348Z,99.99
2023-02-06T08:39:41.321Z,99.99
2023-02-06T08:40:41.300Z,99.99
2023-02-06T08:41:41.285Z,99.99
2023-02-06T08:42:41.264Z,99.99
2023-02-06T08:43:41.250Z,99.99
2023-02-06T08:44:41.228Z,99.99
2023-02-06T08:45:41.213Z,99.99
2023-02-06T08:46:41.199Z,99.99
2023-02-06T08:47:41.177Z,99.99
2023-02-06T08:48:41.237Z,99.99
2023-02-06T08:49:41.149Z,99.99
2023-02-06T08:50:41.122Z,99.99
2023-02-06T08:51:41.108Z,99.99
2023-02-06T08:52:41.091Z,99.99
2023-02-06T08:53:41.076Z,99.99
2023-02-06T08:54:41.071Z,99.99
2023-02-06T08:55:41.415Z,99.99
2023-02-06T08:56:41.018Z,99.99
2023-02-06T08:57:41.003Z,99.99
2023-02-06T08:58:40.980Z,99.99
2023-02-06T08:59:40.969Z,99.99
2023-02-06T09:00:40.945Z,99.99
2023-02-06T09:01:41.009Z,99.99
2023-02-06T09:02:40.965Z,99.99
2023-02-06T09:03:40.897Z,99.99
2023-02-06T09:04:40.930Z,99.99
2023-02-06T09:05:40.862Z,99.99
2023-02-06T09:06:40.842Z,99.99
2023-02-06T09:07:40.826Z,99.99
2023-02-06T09:08:40.806Z,99.99
2023-02-06T09:09:40.790Z,99.99
2023-02-06T09:10:40.768Z,99.99
2023-02-06T09:11:40.763Z,99.99
2023-02-06T09:12:40.734Z,99.99
2023-02-06T09:13:40.770Z,99.99
2023-02-06T09:14:40.698Z,99.99
2023-02-06T09:15:40.981Z,99.99
2023-02-06T09:16:40.661Z,99.99
2023-02-06T09:17:40.648Z,99.99
2023-02-06T09:18:40.625Z,99.99
2023-02-06T09:19:40.612Z,99.99
2023-02-06T09:20:40.612Z,99.99
2023-02-06T09:21:40.578Z,99.99
2023-02-06T09:22:40.551Z,99.99
2023-02-06T09:23:40.537Z,99.99
2023-02-06T09:24:40.515Z,99.99
2023-02-06T09:25:40.562Z,99.99
2023-02-06T09:26:53.522Z,99.99
2023-02-06T09:27:40.465Z,99.99
2023-02-06T09:28:40.443Z,99.99
2023-02-06T09:29:40.428Z,99.99
2023-02-06T09:30:40.422Z,99.99
2023-02-06T09:31:40.498Z,99.99
2023-02-06T09:32:40.375Z,99.99
2023-02-06T09:33:40.476Z,99.99
2023-02-06T09:34:40.340Z,99.99
2023-02-06T09:35:40.320Z,99.99
2023-02-06T09:36:40.316Z,99.99
2023-02-06T09:37:40.284Z,99.99
2023-02-06T09:38:40.262Z,99.99
2023-02-06T09:39:40.247Z,99.99
2023-02-06T09:40:40.280Z,99.99
2023-02-06T09:41:40.213Z,99.99
2023-02-06T09:42:40.189Z,99.99
2023-02-06T09:43:40.181Z,99.99
2023-02-06T09:44:40.161Z,99.99
2023-02-06T09:45:40.164Z,99.99
2023-02-06T09:46:40.191Z,99.99
2023-02-06T09:47:40.104Z,99.99
2023-02-06T09:48:40.088Z,99.99
2023-02-06T09:49:40.070Z,99.99
2023-02-06T09:50:40.048Z,99.99
2023-02-06T09:51:40.077Z,99.99
2023-02-06T09:52:40.039Z,99.99
2023-02-06T09:53:40.000Z,99.99
2023-02-06T09:54:39.977Z,99.99
2023-02-06T09:55:40.028Z,99.99
2023-02-06T09:56:39.945Z,99.99
2023-02-06T09:57:39.932Z,99.99
2023-02-06T09:58:39.909Z,99.99
2023-02-06T09:59:39.893Z,99.99
2023-02-06T10:00:39.878Z,99.99
2023-02-06T10:01:39.972Z,99.99
2023-02-06T10:02:39.857Z,99.99
2023-02-06T10:03:39.825Z,99.99
2023-02-06T10:04:39.808Z,99.99
2023-02-06T10:05:39.841Z,99.99
2023-02-06T10:06:39.772Z,99.99
2023-02-06T10:07:39.750Z,99.99
2023-02-06T10:08:39.758Z,99.99
2023-02-06T10:09:39.713Z,99.99
2023-02-06T10:10:39.707Z,99.99
2023-02-06T10:11:39.688Z,99.99
2023-02-06T10:12:39.663Z,99.49
2023-02-06T10:13:39.653Z,99.49
2023-02-06T10:14:39.633Z,99.30
2023-02-06T10:15:39.646Z,99.68
2023-02-06T10:16:39.649Z,99.11
2023-02-06T10:17:39.573Z,99.11
2023-02-06T10:18:39.558Z,99.11
2023-02-06T10:19:39.535Z,99.87
2023-02-06T10:20:39.521Z,99.99
2023-02-06T10:21:39.502Z,99.99
2023-02-06T10:22:39.487Z,99.99
2023-02-06T10:23:39.674Z,99.99
2023-02-06T10:24:39.477Z,99.99
2023-02-06T10:25:39.540Z,99.99
2023-02-06T10:26:39.423Z,99.99
2023-02-06T10:27:39.398Z,99.99
2023-02-06T10:28:39.385Z,99.99
2023-02-06T10:29:39.362Z,99.99
2023-02-06T10:30:39.349Z,99.99
2023-02-06T10:31:39.369Z,99.99
2023-02-06T10:32:39.315Z,99.99
2023-02-06T10:33:39.350Z,99.99
2023-02-06T10:34:39.282Z,99.99
2023-02-06T10:35:39.496Z,99.99
2023-02-06T10:36:39.248Z,99.99
2023-02-06T10:37:39.226Z,99.99
2023-02-06T10:38:39.210Z,99.99
2023-02-06T10:39:39.191Z,99.99
2023-02-06T10:40:39.202Z,99.99
2023-02-06T10:41:39.159Z,99.99
2023-02-06T10:42:39.144Z,99.30
2023-02-06T10:43:39.121Z,99.11
2023-02-06T10:44:39.108Z,99.01
2023-02-06T10:45:39.386Z,98.63
2023-02-06T10:46:39.108Z,98.16
2023-02-06T10:47:39.051Z,98.25
2023-02-06T10:48:39.160Z,98.16
2023-02-06T10:49:39.026Z,98.54
2023-02-06T10:50:39.001Z,98.44
2023-02-06T10:51:38.982Z,98.44
2023-02-06T10:52:38.969Z,98.35
2023-02-06T10:53:38.947Z,98.63
2023-02-06T10:54:38.932Z,98.82
2023-02-06T10:55:38.926Z,99.49
2023-02-06T10:56:38.976Z,99.39
2023-02-06T10:57:38.882Z,99.11
2023-02-06T10:58:38.873Z,99.20
2023-02-06T10:59:38.850Z,99.01
2023-02-06T11:00:39.296Z,99.11
2023-02-06T11:01:38.896Z,98.92
2023-02-06T11:02:38.795Z,98.82
2023-02-06T11:03:39.824Z,98.73
2023-02-06T11:04:38.771Z,98.82
2023-02-06T11:05:39.134Z,99.01
2023-02-06T11:06:38.720Z,99.01
2023-02-06T11:07:38.700Z,98.54
2023-02-06T11:08:38.688Z,98.73
2023-02-06T11:09:38.669Z,98.82
2023-02-06T11:10:39.189Z,99.39
2023-02-06T11:11:38.640Z,98.54
2023-02-06T11:12:38.668Z,97.50
2023-02-06T11:13:38.619Z,97.97
2023-02-06T11:14:38.580Z,97.31
2023-02-06T11:15:38.821Z,96.83
2023-02-06T11:16:38.596Z,97.12
2023-02-06T11:17:38.525Z,97.12
2023-02-06T11:18:38.512Z,96.88
2023-02-06T11:19:38.488Z,96.31
2023-02-06T11:20:38.745Z,95.27
2023-02-06T11:21:38.454Z,94.79
2023-02-06T11:22:51.101Z,94.70
2023-02-06T11:23:38.420Z,94.60
2023-02-06T11:24:38.406Z,94.13
2023-02-06T11:25:38.854Z,93.46
2023-02-06T11:26:38.372Z,92.90
2023-02-06T11:27:38.353Z,93.08
2023-02-06T11:28:38.356Z,92.33
2023-02-06T11:29:38.319Z,92.14
2023-02-06T11:30:38.680Z,92.61
2023-02-06T11:31:38.414Z,92.99
2023-02-06T11:32:38.275Z,93.56
2023-02-06T11:33:38.266Z,93.37
2023-02-06T11:34:38.232Z,93.65
2023-02-06T11:35:38.762Z,93.41
2023-02-06T11:36:38.204Z,93.23
2023-02-06T11:37:38.181Z,92.37
2023-02-06T11:38:38.166Z,91.99
2023-02-06T11:39:38.160Z,91.99
2023-02-06T11:40:38.496Z,92.23
2023-02-06T11:41:38.110Z,92.42
2023-02-06T11:42:38.108Z,92.66
2023-02-06T11:43:38.077Z,92.94
2023-02-06T11:44:38.198Z,92.75
2023-02-06T11:45:38.506Z,92.90
2023-02-06T11:46:38.029Z,92.52
2023-02-06T11:47:38.303Z,93.27
2023-02-06T11:48:37.996Z,93.37
2023-02-06T11:49:37.978Z,93.94
2023-02-06T11:50:38.374Z,93.94
2023-02-06T11:51:37.943Z,94.60
2023-02-06T11:52:37.928Z,93.27
2023-02-06T11:53:37.915Z,93.37
2023-02-06T11:54:37.894Z,92.42
2023-02-06T11:55:38.120Z,91.94
2023-02-06T11:56:37.868Z,92.28
2023-02-06T11:57:37.841Z,92.04
2023-02-06T11:58:37.825Z,92.37
2023-02-06T11:59:37.806Z,92.28
2023-02-06T12:00:37.818Z,92.04
2023-02-06T12:01:37.790Z,92.37
2023-02-06T12:02:37.793Z,92.47
2023-02-06T12:03:37.829Z,91.24
2023-02-06T12:04:37.729Z,90.85
2023-02-06T12:05:38.172Z,90.71
2023-02-06T12:06:37.692Z,92.04
2023-02-06T12:07:37.674Z,92.04
2023-02-06T12:08:37.657Z,92.33
2023-02-06T12:09:37.639Z,91.47
2023-02-06T12:10:37.625Z,92.14
2023-02-06T12:11:37.606Z,92.14
2023-02-06T12:12:37.590Z,93.56
2023-02-06T12:13:37.571Z,92.33
2023-02-06T12:14:37.556Z,91.94
2023-02-06T12:15:46.659Z,92.04
2023-02-06T12:16:37.597Z,91.75
2023-02-06T12:17:37.507Z,92.23
2023-02-06T12:18:37.493Z,92.61
2023-02-06T12:19:37.473Z,91.85
2023-02-06T12:20:37.455Z,91.85
2023-02-06T12:21:37.437Z,91.71
2023-02-06T12:22:37.421Z,91.24
2023-02-06T12:23:37.400Z,90.47
2023-02-06T12:24:37.395Z,90.28
2023-02-06T12:25:37.709Z,90.00
2023-02-06T12:26:37.355Z,90.95
2023-02-06T12:27:39.250Z,91.99
2023-02-06T12:28:37.324Z,90.09
2023-02-06T12:29:37.297Z,91.80
2023-02-06T12:30:37.402Z,90.95
2023-02-06T12:31:37.423Z,90.28
2023-02-06T12:32:37.268Z,90.24
2023-02-06T12:33:37.231Z,92.18
2023-02-06T12:34:37.216Z,92.18
2023-02-06T12:35:37.539Z,92.18
2023-02-06T12:36:37.182Z,90.95
2023-02-06T12:37:37.164Z,91.24
2023-02-06T12:38:37.147Z,91.33
2023-02-06T12:39:37.128Z,90.76
2023-02-06T12:40:37.112Z,93.13
2023-02-06T12:41:37.097Z,91.99
2023-02-06T12:42:37.092Z,93.70
2023-02-06T12:43:37.063Z,94.18
2023-02-06T12:44:37.048Z,92.56
2023-02-06T12:45:37.382Z,91.42
2023-02-06T12:46:37.044Z,91.33
2023-02-06T12:47:36.991Z,91.52
2023-02-06T12:48:36.993Z,90.19
2023-02-06T12:49:37.039Z,88.76
2023-02-06T12:50:36.941Z,89.24
2023-02-06T12:51:36.934Z,88.86
2023-02-06T12:52:36.908Z,88.67
2023-02-06T12:53:36.892Z,91.33
2023-02-06T12:54:36.873Z,90.85
2023-02-06T12:55:37.178Z,92.47
2023-02-06T12:56:36.843Z,92.47